Skip to content

HTTPS clone URL

Subversion checkout URL

You can clone with
or
.
Download ZIP
A library for retrieving and parsing meteorological aviation reports (METAR) and terminal area forecasts (TAF)
Ruby
branch: master

This branch is 17 commits ahead of karuna:master

Fetching latest commit…

Cannot retrieve the latest commit at this time

Failed to load latest commit information.
lib
test
.gitignore
LICENSE
README.markdown
Rakefile
TODO
example.rb

README.markdown

ruby-wx

This is a fork of brandonh's ruby-metar project. I have renamed it back to ruby-wx as I plan on including TAF decoding support.

METAR decoding

TAF decoding

example.rb

usage: ./example.rb [ICAO] [TYPE]
    ICAO: ICAO Station Code
    TYPE: Can be METAR or TAF, default to METAR if wrong

% ./example.rb LOWI METAR
TEXT:                 LOWI 141350Z VRB02KT 9999 FEW022 BKN026 09/05 Q1013 NOSIG
Conditions at:        LOWI
Temperature/Dewpoint: 9°C / 5°C (48.2°F / 41°F) [RH 75.9%]
Pressure (altimiter): 10.13 inches Hg (343 mb)
Winds:                Variable at 2 knots (2.3 MPH; 1 m/s)
Visibility:           Greater than  miles
Clouds:               Few at 2200 ft
                      Broken at 2600 ft
Recent Weather:       No Significant change

My fork

I've forked only to fix minors things

Original

The original stuff comes from http://github.com/fugalh/ruby-wx

Something went wrong with that request. Please try again.